Time;durP1;ratioP1;P1;durP2;ratioP2;P2;SDS_P1;SDS_P2;PMS_P1;PMS_P2;Temp;Humidity;BMP_temperature;BMP_pressure;BME280_temperature;BME280_humidity;BME280_pressure;Samples;Min_cycle;Max_cycle;Signal;HPM_P1;HPM_P2
2022/09/20 00:00:21;;;;;;;31.35;6.70;;;;;;;11.53;100.00;98287.25;5038293;28;20059;-58
2022/09/20 00:02:46;;;;;;;27.73;6.00;;;;;;;11.95;100.00;98291.66;5038942;28;20032;-59
2022/09/20 00:05:12;;;;;;;25.33;5.63;;;;;;;11.59;100.00;98284.38;5039459;28;20021;-61
2022/09/20 00:07:37;;;;;;;27.92;5.80;;;;;;;11.78;100.00;98289.69;5040354;28;20016;-59
2022/09/20 00:10:03;;;;;;;26.15;5.55;;;;;;;11.76;100.00;98281.94;5038802;28;20033;-59
2022/09/20 00:12:28;;;;;;;31.65;6.43;;;;;;;12.28;100.00;98283.31;5037328;28;20569;-61
2022/09/20 00:14:53;;;;;;;29.08;6.22;;;;;;;12.04;100.00;98287.78;5039917;28;20028;-60
2022/09/20 00:17:19;;;;;;;32.13;6.95;;;;;;;12.30;100.00;98281.47;5039245;28;20103;-58
2022/09/20 00:19:44;;;;;;;28.60;6.63;;;;;;;12.01;100.00;98277.50;5041371;28;20029;-60
2022/09/20 00:22:09;;;;;;;22.38;4.45;;;;;;;12.92;100.00;98280.44;5038369;28;20489;-60
2022/09/20 00:24:35;;;;;;;26.63;6.25;;;;;;;11.83;100.00;98277.31;5039835;28;20989;-57
2022/09/20 00:27:02;;;;;;;26.17;5.63;;;;;;;12.47;100.00;98289.41;5039206;28;20487;-61
2022/09/20 00:29:27;;;;;;;27.05;5.63;;;;;;;12.32;100.00;98284.88;5037905;28;20029;-59
2022/09/20 00:31:53;;;;;;;28.27;5.55;;;;;;;11.87;100.00;98283.25;5037895;28;20099;-58
2022/09/20 00:37:02;;;;;;;26.77;5.85;;;;;;;12.19;100.00;98281.09;5038681;28;20810;-59
2022/09/20 00:39:27;;;;;;;30.10;5.88;;;;;;;12.02;100.00;98287.88;5039277;28;20037;-60
2022/09/20 00:41:53;;;;;;;29.65;5.90;;;;;;;12.00;100.00;98279.22;5038698;28;20033;-60
2022/09/20 00:44:41;;;;;;;31.75;6.25;;;;;;;11.74;100.00;98275.94;5039948;28;20021;-58
2022/09/20 00:47:19;;;;;;;23.25;5.43;;;;;;;11.82;100.00;98272.13;5037715;28;20040;-58
2022/09/20 00:49:45;;;;;;;23.10;4.88;;;;;;;11.78;100.00;98271.41;5037344;28;20028;-58
2022/09/20 00:52:10;;;;;;;22.88;5.20;;;;;;;11.68;100.00;98268.34;5038090;28;20036;-60
2022/09/20 00:54:36;;;;;;;28.08;5.13;;;;;;;11.56;100.00;98268.81;5039052;28;20032;-58
2022/09/20 00:57:01;;;;;;;29.58;5.88;;;;;;;11.43;100.00;98271.09;5036318;28;20076;-59
2022/09/20 00:59:37;;;;;;;28.88;5.55;;;;;;;11.43;100.00;98272.84;5038429;28;20041;-59
2022/09/20 01:02:15;;;;;;;26.85;4.32;;;;;;;12.02;100.00;98282.66;5037248;28;20822;-58
2022/09/20 01:04:41;;;;;;;21.85;4.10;;;;;;;12.07;100.00;98264.97;5038186;28;20025;-59
2022/09/20 01:07:09;;;;;;;22.50;4.40;;;;;;;11.68;100.00;98268.34;5038161;28;20116;-59
2022/09/20 01:09:35;;;;;;;24.02;5.15;;;;;;;11.32;100.00;98271.53;5038404;28;20028;-59
2022/09/20 01:12:08;;;;;;;24.35;4.57;;;;;;;11.91;100.00;98274.38;5036766;28;20065;-57
2022/09/20 01:14:34;;;;;;;26.70;4.90;;;;;;;11.43;100.00;98275.47;5036284;28;20036;-59
2022/09/20 01:17:03;;;;;;;27.75;5.72;;;;;;;11.57;100.00;98275.75;5036329;28;20029;-57
2022/09/20 01:20:09;;;;;;;25.02;5.43;;;;;;;11.56;100.00;98284.50;5037868;28;20153;-57
2022/09/20 01:22:34;;;;;;;28.15;5.55;;;;;;;11.45;100.00;98276.25;5036737;28;20578;-58
2022/09/20 01:25:09;;;;;;;26.80;5.35;;;;;;;11.18;100.00;98276.44;5037677;28;20031;-58
2022/09/20 01:27:47;;;;;;;29.95;5.43;;;;;;;11.39;100.00;98277.34;5037092;28;20039;-59
2022/09/20 01:30:17;;;;;;;24.27;4.85;;;;;;;10.93;100.00;98276.53;5037362;28;20508;-59
2022/09/20 01:33:01;;;;;;;27.00;4.72;;;;;;;11.86;100.00;98289.41;5036930;28;20037;-57
2022/09/20 01:35:27;;;;;;;33.65;5.47;;;;;;;11.17;100.00;98277.34;5037492;28;20044;-58
2022/09/20 01:38:23;;;;;;;27.05;4.80;;;;;;;11.34;100.00;98272.31;5038418;28;20087;-57
2022/09/20 01:40:58;;;;;;;32.53;5.90;;;;;;;11.03;100.00;98282.25;5035820;28;20176;-57
2022/09/20 01:43:33;;;;;;;29.40;5.13;;;;;;;11.27;100.00;98277.84;5036543;28;20032;-58
2022/09/20 01:46:10;;;;;;;29.67;5.63;;;;;;;11.46;100.00;98285.81;5038403;28;20051;-57
2022/09/20 01:48:40;;;;;;;27.67;5.53;;;;;;;11.40;100.00;98283.44;5036756;28;20024;-58
2022/09/20 01:51:21;;;;;;;26.20;4.95;;;;;;;11.71;100.00;98283.91;5035887;28;20075;-61
2022/09/20 01:53:46;;;;;;;26.88;4.90;;;;;;;12.59;100.00;98287.16;5037484;28;20714;-60
2022/09/20 01:56:42;;;;;;;31.48;5.97;;;;;;;11.80;100.00;98266.13;5035098;28;20160;-58
2022/09/20 01:59:25;;;;;;;28.63;5.30;;;;;;;11.74;100.00;98273.31;5035838;28;20035;-60
2022/09/20 02:01:56;;;;;;;26.67;5.20;;;;;;;11.54;100.00;98273.28;5032740;28;20410;-59
2022/09/20 02:04:40;;;;;;;29.52;5.60;;;;;;;11.39;100.00;98277.34;5037467;28;20085;-58
2022/09/20 02:07:47;;;;;;;22.65;4.80;;;;;;;11.67;100.00;98292.78;5031952;28;20041;-60
2022/09/20 02:10:19;;;;;;;26.33;5.20;;;;;;;11.58;100.00;98287.94;5026379;28;20056;-62
2022/09/20 02:13:20;;;;;;;23.77;4.97;;;;;;;11.30;100.00;98286.41;5033600;28;20021;-58
2022/09/20 02:16:12;;;;;;;17.88;3.90;;;;;;;11.99;100.00;98290.63;5007749;28;20313;-59
2022/09/20 02:18:56;;;;;;;23.20;4.60;;;;;;;11.65;100.00;98288.50;5035964;28;20786;-61
2022/09/20 02:21:59;;;;;;;24.10;4.97;;;;;;;11.66;100.00;98280.63;5034923;28;20063;-59
2022/09/20 02:24:38;;;;;;;22.08;4.38;;;;;;;11.75;100.00;98282.84;5034665;28;20236;-58
2022/09/20 02:27:25;;;;;;;28.02;5.60;;;;;;;11.40;100.00;98289.50;5036185;28;20040;-59
2022/09/20 02:30:09;;;;;;;30.30;5.10;;;;;;;11.86;100.00;98292.03;5035996;28;20111;-59
2022/09/20 02:32:57;;;;;;;23.88;4.70;;;;;;;11.45;100.00;98289.31;5036071;28;20043;-58
2022/09/20 02:35:25;;;;;;;24.30;4.68;;;;;;;11.48;100.00;98287.44;5029744;28;20614;-60
2022/09/20 02:37:59;;;;;;;25.05;5.03;;;;;;;11.59;100.00;98284.38;5036871;28;20036;-59
2022/09/20 02:40:43;;;;;;;23.70;3.95;;;;;;;12.13;100.00;98290.88;5036068;28;20681;-59
2022/09/20 02:43:26;;;;;;;28.33;5.25;;;;;;;11.62;100.00;98289.50;5036514;28;20090;-59
2022/09/20 02:46:07;;;;;;;23.35;4.30;;;;;;;11.52;100.00;98290.78;5035517;28;20041;-58
2022/09/20 02:48:59;;;;;;;22.42;4.72;;;;;;;11.62;100.00;98294.72;5036012;28;20512;-58
2022/09/20 02:51:42;;;;;;;29.48;5.28;;;;;;;11.38;100.00;98286.97;5034413;28;20029;-56
2022/09/20 02:54:28;;;;;;;23.52;4.72;;;;;;;11.41;100.00;98290.34;5036547;28;20074;-56
2022/09/20 02:57:21;;;;;;;19.30;4.22;;;;;;;11.55;100.00;98288.03;5036813;28;20152;-57
2022/09/20 03:00:01;;;;;;;27.35;5.18;;;;;;;11.28;100.00;98285.59;5036860;28;20107;-57
2022/09/20 03:03:05;;;;;;;32.47;5.72;;;;;;;11.41;100.00;98285.13;5036270;28;20514;-57
2022/09/20 03:05:56;;;;;;;32.25;5.60;;;;;;;11.09;100.00;98290.69;5006149;28;20745;-59
2022/09/20 03:08:43;;;;;;;24.05;4.82;;;;;;;11.57;100.00;98296.66;5006097;28;20048;-56
2022/09/20 03:11:45;;;;;;;25.83;5.32;;;;;;;11.27;100.00;98289.16;5029386;28;20039;-56
2022/09/20 03:14:41;;;;;;;23.48;5.13;;;;;;;11.43;100.00;98298.97;5029310;28;20053;-59
2022/09/20 03:17:09;;;;;;;28.05;5.43;;;;;;;11.56;100.00;98303.66;5037269;28;20080;-58
2022/09/20 03:19:52;;;;;;;34.60;5.80;;;;;;;11.56;100.00;98294.94;5039164;28;20028;-59
2022/09/20 03:22:24;;;;;;;;;;;;;;;11.52;100.00;98306.44;5038070;28;20716;-58
2022/09/20 03:25:08;;;;;;;29.33;5.32;;;;;;;11.55;100.00;98309.78;5039854;28;19999;-57
2022/09/20 03:28:08;;;;;;;34.08;5.50;;;;;;;11.58;100.00;98303.59;5040206;28;20075;-57
2022/09/20 03:30:49;;;;;;;36.75;6.38;;;;;;;11.70;100.00;98307.47;5033089;28;20048;-59
2022/09/20 03:33:23;;;;;;;25.20;5.18;;;;;;;11.53;100.00;98305.53;5039836;28;20068;-56
2022/09/20 03:36:10;;;;;;;32.40;5.65;;;;;;;11.55;100.00;98303.72;5039765;28;20044;-59
2022/09/20 03:39:13;;;;;;;31.30;5.32;;;;;;;11.49;100.00;98294.38;5039457;28;20033;-57
2022/09/20 03:41:44;;;;;;;27.58;5.40;;;;;;;11.38;100.00;98297.41;5039301;28;20036;-60
2022/09/20 03:44:29;;;;;;;30.15;5.25;;;;;;;11.81;100.00;98299.19;5040811;28;20024;-58
2022/09/20 03:47:41;;;;;;;28.05;5.63;;;;;;;11.69;100.00;98300.53;5039027;28;20136;-58
2022/09/20 03:50:06;;;;;;;25.20;5.07;;;;;;;11.64;100.00;98300.72;5033249;28;20650;-56
2022/09/20 03:52:53;;;;;;;31.42;5.50;;;;;;;11.74;100.00;98294.22;5039852;28;20052;-57
2022/09/20 03:55:21;;;;;;;27.10;4.95;;;;;;;11.50;100.00;98300.44;5039441;28;20036;-57
2022/09/20 03:57:58;;;;;;;29.08;5.68;;;;;;;10.85;100.00;98295.09;5039795;28;20029;-57
2022/09/20 04:00:55;;;;;;;29.05;5.55;;;;;;;11.84;100.00;98296.47;5039116;28;20118;-60
2022/09/20 04:03:51;;;;;;;28.58;5.78;;;;;;;11.35;100.00;98297.50;5038627;28;20028;-60
2022/09/20 04:06:30;;;;;;;24.23;5.30;;;;;;;11.60;100.00;98304.38;5039355;28;20105;-61
2022/09/20 04:09:42;;;;;;;29.13;5.78;;;;;;;11.35;100.00;98302.72;5040280;28;20039;-59
2022/09/20 04:12:26;;;;;;;29.50;5.65;;;;;;;11.24;100.00;98310.13;5038827;28;20042;-59
2022/09/20 04:15:04;;;;;;;30.70;5.63;;;;;;;11.20;100.00;98311.19;5040541;28;20508;-57
2022/09/20 04:17:48;;;;;;;26.00;4.78;;;;;;;11.70;100.00;98318.75;5038362;28;20546;-59
2022/09/20 04:20:49;;;;;;;27.98;5.00;;;;;;;11.54;100.00;98307.22;5038833;28;20028;-59
2022/09/20 04:23:20;;;;;;;29.50;6.43;;;;;;;11.51;100.00;98313.44;5036976;28;20898;-58
2022/09/20 04:25:47;;;;;;;21.58;6.03;;;;;;;11.47;100.00;98321.44;5037840;28;20111;-58
2022/09/20 04:28:20;;;;;;;25.25;5.70;;;;;;;12.03;100.00;98315.72;5039534;28;20162;-59
2022/09/20 04:30:47;;;;;;;32.90;6.15;;;;;;;11.82;100.00;98313.94;5037518;28;20039;-59
2022/09/20 04:33:16;;;;;;;26.95;6.30;;;;;;;11.67;100.00;98318.91;5039398;28;20025;-56
2022/09/20 04:39:21;;;;;;;36.88;6.93;;;;;;;11.33;100.00;98329.84;5039312;28;20094;-60
2022/09/20 04:42:24;;;;;;;29.48;6.30;;;;;;;11.16;100.00;98322.66;5036986;28;20040;-60
2022/09/20 04:44:52;;;;;;;25.73;5.30;;;;;;;11.61;100.00;98328.75;5036900;28;20021;-58
2022/09/20 04:47:42;;;;;;;29.23;5.93;;;;;;;11.14;100.00;98337.53;5037240;28;20043;-60
2022/09/20 04:50:20;;;;;;;28.60;5.63;;;;;;;11.50;100.00;98337.84;5036283;28;20029;-59
2022/09/20 04:53:22;;;;;;;29.13;6.07;;;;;;;11.79;100.00;98337.63;5037565;28;20021;-60
2022/09/20 04:55:51;;;;;;;;;;;;;;;11.51;100.00;98343.94;5038400;28;20682;-62
2022/09/20 04:58:45;;;;;;;28.25;5.25;;;;;;;11.63;100.00;98339.97;5038797;28;19913;-57
2022/09/20 05:01:15;;;;;;;30.10;6.07;;;;;;;11.38;100.00;98346.19;5034683;28;20075;-60
2022/09/20 05:04:02;;;;;;;30.77;6.55;;;;;;;11.41;100.00;98350.41;5038562;28;20494;-60
2022/09/20 05:06:37;;;;;;;24.55;5.22;;;;;;;11.17;100.00;98350.44;5038234;28;20136;-59
2022/09/20 05:09:12;;;;;;;34.10;5.80;;;;;;;11.62;100.00;98357.44;5037515;28;20106;-57
2022/09/20 05:12:05;;;;;;;31.40;5.63;;;;;;;11.61;100.00;98363.56;5037502;28;20040;-59
2022/09/20 05:14:51;;;;;;;28.23;5.18;;;;;;;11.68;100.00;98359.78;5037220;28;20029;-60
2022/09/20 05:17:30;;;;;;;33.00;5.78;;;;;;;11.91;100.00;98363.25;5037363;28;20056;-59
2022/09/20 05:20:24;;;;;;;25.70;4.85;;;;;;;12.25;100.00;98372.34;5036223;28;20037;-59
2022/09/20 05:23:01;;;;;;;27.63;5.35;;;;;;;11.84;100.00;98367.03;5036925;28;20037;-60
2022/09/20 05:25:29;;;;;;;30.27;5.30;;;;;;;11.74;100.00;98358.69;5036060;28;20498;-58
2022/09/20 05:28:09;;;;;;;31.50;5.97;;;;;;;11.69;100.00;98371.97;5037026;28;20033;-57
2022/09/20 05:30:54;;;;;;;34.97;6.18;;;;;;;11.84;100.00;98367.03;5035661;28;20037;-59
2022/09/20 05:33:28;;;;;;;24.35;4.68;;;;;;;12.11;100.00;98379.00;5037830;28;20039;-59
2022/09/20 05:36:12;;;;;;;28.77;5.15;;;;;;;11.95;100.00;98367.47;5036430;28;20041;-59
2022/09/20 05:38:48;;;;;;;28.08;5.28;;;;;;;12.23;100.00;98374.19;5038006;28;20033;-57
2022/09/20 05:41:31;;;;;;;29.27;5.28;;;;;;;12.00;100.00;98367.28;5037114;28;20047;-57
2022/09/20 05:43:56;;;;;;;;;;;;;;;12.08;100.00;98370.44;5036955;28;20074;-60
2022/09/20 05:46:49;;;;;;;33.80;5.57;;;;;;;12.24;100.00;98375.88;5033041;28;19921;-60
2022/09/20 05:49:22;;;;;;;;;;;;;;;12.27;100.00;98388.81;5035329;28;20028;-59
2022/09/20 05:52:03;;;;;;;27.02;5.03;;;;;;;11.95;100.00;98383.16;5034235;28;19913;-58
2022/09/20 05:55:00;;;;;;;28.58;5.38;;;;;;;11.91;100.00;98382.44;5037273;28;20124;-58
2022/09/20 05:57:25;;;;;;;35.28;6.32;;;;;;;12.16;100.00;98389.25;5028269;28;20037;-58
2022/09/20 06:00:00;;;;;;;24.98;5.55;;;;;;;11.87;100.00;98387.81;5036841;28;20085;-58
2022/09/20 06:02:58;;;;;;;28.05;5.47;;;;;;;11.69;100.00;98377.19;5036905;28;20044;-59
2022/09/20 06:05:39;;;;;;;28.50;5.80;;;;;;;11.96;100.00;98390.06;5037408;28;20044;-57
2022/09/20 06:08:35;;;;;;;30.15;5.72;;;;;;;12.21;100.00;98386.47;5038443;28;20029;-60
2022/09/20 06:11:09;;;;;;;30.27;5.50;;;;;;;11.98;100.00;98383.03;5036259;28;20044;-58
2022/09/20 06:13:51;;;;;;;31.83;6.57;;;;;;;12.00;100.00;98386.41;5035159;28;20188;-61
2022/09/20 06:16:30;;;;;;;25.42;5.38;;;;;;;11.82;100.00;98384.50;5036520;28;20129;-59
2022/09/20 06:19:27;;;;;;;31.95;6.20;;;;;;;12.69;100.00;98387.91;5036163;28;20028;-57
2022/09/20 06:21:57;;;;;;;31.83;5.70;;;;;;;12.57;100.00;98393.66;5035991;28;20040;-60
2022/09/20 06:24:36;;;;;;;23.35;4.95;;;;;;;12.62;100.00;98396.94;5037452;28;20647;-58
2022/09/20 06:27:11;;;;;;;30.98;6.32;;;;;;;12.41;100.00;98394.34;5035985;28;20032;-59
2022/09/20 06:29:42;;;;;;;31.98;5.97;;;;;;;12.38;100.00;98388.38;5036503;28;20488;-57
2022/09/20 06:32:07;;;;;;;26.88;6.55;;;;;;;12.28;100.00;98382.69;5036464;28;20060;-60
2022/09/20 06:34:34;;;;;;;32.00;7.25;;;;;;;12.46;100.00;98384.53;5037073;28;20144;-60
2022/09/20 06:43:11;;;;;;;27.92;6.82;;;;;;;12.47;100.00;98386.22;5036763;28;20032;-57
2022/09/20 06:45:36;;;;;;;28.45;6.65;;;;;;;12.00;100.00;98393.41;5036253;28;20033;-58
2022/09/20 06:48:02;;;;;;;31.48;6.75;;;;;;;12.12;100.00;98399.00;5037367;28;20028;-58
2022/09/20 06:50:27;;;;;;;32.28;6.88;;;;;;;12.06;100.00;98393.19;5036066;28;20040;-59
2022/09/20 06:52:54;;;;;;;30.58;6.82;;;;;;;12.33;100.00;98396.41;5036614;28;20082;-61
2022/09/20 06:55:27;;;;;;;28.20;6.38;;;;;;;12.51;100.00;98406.09;5034929;28;20582;-57
2022/09/20 06:57:53;;;;;;;28.25;6.28;;;;;;;11.90;100.00;98395.56;5038065;28;20085;-57
2022/09/20 07:00:18;;;;;;;30.25;6.85;;;;;;;12.46;100.00;98408.09;5035319;28;20071;-57
2022/09/20 07:02:44;;;;;;;26.30;6.40;;;;;;;12.69;100.00;98401.84;5025956;28;20025;-58
2022/09/20 07:05:13;;;;;;;30.92;6.63;;;;;;;14.49;100.00;98402.28;5035756;28;20029;-58
2022/09/20 07:07:39;;;;;;;23.25;5.85;;;;;;;15.54;100.00;98384.53;5038685;28;20029;-61
2022/09/20 07:10:05;;;;;;;19.77;5.32;;;;;;;14.77;100.00;98380.75;5037362;28;20483;-61
2022/09/20 07:12:32;;;;;;;23.80;5.90;;;;;;;14.18;100.00;98385.44;5036565;28;20415;-60
2022/09/20 07:14:58;;;;;;;21.98;6.15;;;;;;;13.78;100.00;98376.88;5037008;28;20054;-58
2022/09/20 07:17:24;;;;;;;27.67;6.22;;;;;;;13.87;100.00;98381.69;5037987;28;20124;-59
2022/09/20 07:19:49;;;;;;;23.35;5.63;;;;;;;14.31;100.00;98386.53;5038393;28;20106;-59
2022/09/20 07:22:15;;;;;;;26.73;6.43;;;;;;;14.24;100.00;98395.63;5036490;28;20033;-61
2022/09/20 07:24:41;;;;;;;22.02;5.32;;;;;;;15.10;100.00;98391.25;5037194;28;20021;-61
2022/09/20 07:27:06;;;;;;;22.73;5.35;;;;;;;14.77;100.00;98381.56;5035293;28;20376;-59
2022/09/20 07:29:34;;;;;;;24.40;5.65;;;;;;;14.03;100.00;98385.25;5036595;28;20415;-62
2022/09/20 07:31:59;;;;;;;22.77;5.45;;;;;;;14.56;100.00;98393.19;5036053;28;20446;-62
2022/09/20 07:34:26;;;;;;;26.77;5.65;;;;;;;14.31;100.00;98386.53;5036237;28;20494;-60
2022/09/20 07:36:51;;;;;;;27.73;5.75;;;;;;;14.19;100.00;98385.38;5037677;28;20471;-59
2022/09/20 07:39:17;;;;;;;29.55;6.30;;;;;;;14.31;100.00;98394.38;5035021;28;20735;-58
2022/09/20 07:41:49;;;;;;;25.83;5.47;;;;;;;13.61;100.00;98399.50;5035935;28;20044;-58
2022/09/20 07:44:23;;;;;;;25.05;5.40;;;;;;;14.01;100.00;98407.25;5037623;28;20027;-60
2022/09/20 07:46:56;;;;;;;24.73;5.63;;;;;;;14.10;100.00;98396.31;5033323;28;20847;-60
2022/09/20 07:49:23;;;;;;;23.38;5.30;;;;;;;13.93;100.00;98405.00;5037308;28;20639;-60
2022/09/20 07:51:49;;;;;;;25.35;5.30;;;;;;;14.14;100.00;98404.88;5037486;28;20041;-59
2022/09/20 07:54:15;;;;;;;20.50;4.82;;;;;;;14.73;100.00;98400.22;5037135;28;20910;-59
2022/09/20 07:56:41;;;;;;;28.20;5.93;;;;;;;13.84;100.00;98406.28;5035784;28;20056;-58
2022/09/20 07:59:07;;;;;;;28.08;5.45;;;;;;;14.06;100.00;98405.22;5041414;28;20028;-57
2022/09/20 08:01:32;;;;;;;25.38;5.90;;;;;;;14.54;100.00;98410.75;5037993;28;20044;-60
2022/09/20 08:03:58;;;;;;;32.70;5.93;;;;;;;13.96;100.00;98410.09;5040939;28;20025;-58
2022/09/20 08:06:23;;;;;;;21.77;4.95;;;;;;;14.21;100.00;98411.53;5038718;28;20040;-59
2022/09/20 08:08:50;;;;;;;30.98;5.78;;;;;;;14.10;100.00;98419.06;5033881;28;20577;-60
2022/09/20 08:11:24;;;;;;;22.42;5.18;;;;;;;14.14;100.00;98424.09;5034284;28;20029;-61
2022/09/20 08:13:53;;;;;;;27.35;5.22;;;;;;;14.78;100.00;98429.72;5038573;28;20053;-59
2022/09/20 08:16:20;;;;;;;19.15;4.95;;;;;;;14.34;100.00;98417.88;5040570;28;20045;-58
2022/09/20 08:18:51;;;;;;;25.73;4.93;;;;;;;14.96;100.00;98420.88;5055504;28;20340;-58
2022/09/20 08:21:17;;;;;;;18.33;4.72;;;;;;;14.83;100.00;98409.28;5037768;28;20037;-62
2022/09/20 08:23:46;;;;;;;21.30;4.57;;;;;;;15.43;100.00;98416.66;5041067;28;20029;-61
2022/09/20 08:26:13;;;;;;;25.75;5.35;;;;;;;15.18;100.00;98411.84;5039975;28;20139;-62
2022/09/20 08:28:39;;;;;;;21.00;4.70;;;;;;;15.31;100.00;98422.56;5040338;28;20025;-61
2022/09/20 08:31:08;;;;;;;20.77;5.00;;;;;;;15.73;100.00;98421.16;5038671;28;20036;-61
2022/09/20 08:33:36;;;;;;;19.52;4.78;;;;;;;15.48;100.00;98421.66;5039816;28;20035;-60
2022/09/20 08:36:01;;;;;;;18.70;4.43;;;;;;;16.04;100.00;98422.09;5039676;28;20048;-62
2022/09/20 08:38:27;;;;;;;23.60;5.28;;;;;;;15.48;100.00;98419.88;5038748;28;20029;-63
2022/09/20 08:41:01;;;;;;;29.58;5.43;;;;;;;15.79;100.00;98410.34;5035196;28;20778;-63
2022/09/20 08:43:31;;;;;;;28.33;5.30;;;;;;;15.87;100.00;98415.16;5039607;28;20055;-63
2022/09/20 08:45:58;;;;;;;30.58;5.95;;;;;;;15.88;100.00;98416.84;5037852;28;20047;-62
2022/09/20 08:48:31;;;;;;;28.38;5.22;;;;;;;15.06;100.00;98417.78;5040791;28;20679;-61
2022/09/20 08:50:56;;;;;;;24.30;4.80;;;;;;;15.99;100.00;98417.13;5036661;28;20128;-61
2022/09/20 08:53:22;;;;;;;22.70;4.85;;;;;;;15.44;100.00;98418.34;5038024;28;20025;-59
2022/09/20 08:55:47;;;;;;;25.92;5.10;;;;;;;15.38;100.00;98423.94;5038181;28;20037;-58
2022/09/20 08:58:13;;;;;;;19.65;4.28;;;;;;;16.09;100.00;98414.81;5037408;28;20059;-60
2022/09/20 09:00:40;;;;;;;32.78;5.60;;;;;;;15.70;100.00;98408.19;5036072;28;21082;-58
2022/09/20 09:03:11;;;;;;;22.20;4.68;;;;;;;15.07;100.00;98407.19;5037806;28;20075;-59
2022/09/20 09:05:41;;;;;;;25.13;5.03;;;;;;;15.16;100.00;98409.31;5037049;28;20034;-61
2022/09/20 09:08:15;;;;;;;24.90;4.75;;;;;;;15.56;100.00;98407.16;5038828;28;20425;-59
2022/09/20 09:10:50;;;;;;;29.15;5.35;;;;;;;15.65;100.00;98404.97;5033299;28;20040;-61
2022/09/20 09:13:30;;;;;;;17.70;3.90;;;;;;;15.90;100.00;98410.59;5040560;28;20024;-62
2022/09/20 09:16:09;;;;;;;23.60;4.30;;;;;;;16.85;100.00;98403.38;5035469;28;20130;-63
2022/09/20 09:18:38;;;;;;;23.40;4.35;;;;;;;16.72;100.00;98398.81;5037242;28;20081;-61
2022/09/20 09:21:06;;;;;;;23.40;4.38;;;;;;;16.44;100.00;98406.66;5038451;28;20033;-58
2022/09/20 09:23:45;;;;;;;24.55;4.82;;;;;;;15.11;100.00;98413.97;5038858;28;20546;-59
2022/09/20 09:26:25;;;;;;;23.42;4.97;;;;;;;14.33;100.00;98418.78;5026907;28;20086;-59
2022/09/20 09:29:19;;;;;;;32.95;5.90;;;;;;;14.50;100.00;98431.09;5035191;28;20043;-58
2022/09/20 09:31:48;;;;;;;23.98;4.68;;;;;;;14.60;100.00;98431.50;5035503;28;20381;-61
2022/09/20 09:34:32;;;;;;;24.98;4.80;;;;;;;15.18;100.00;98428.47;5038382;28;20177;-61
2022/09/20 09:36:57;;;;;;;25.27;5.03;;;;;;;15.53;100.00;98428.38;5037855;28;20055;-58
2022/09/20 09:39:36;;;;;;;20.50;4.10;;;;;;;14.96;100.00;98417.38;5038013;28;20454;-60
2022/09/20 09:42:19;;;;;;;29.35;5.55;;;;;;;14.98;100.00;98415.53;5032318;28;20029;-59
2022/09/20 09:44:49;;;;;;;21.05;4.25;;;;;;;15.10;100.00;98416.66;5036760;28;20853;-58
2022/09/20 09:47:28;;;;;;;23.58;4.65;;;;;;;15.17;100.00;98416.25;5037052;28;20041;-58
2022/09/20 09:49:58;;;;;;;28.95;5.22;;;;;;;15.43;100.00;98421.91;5037258;28;20493;-61
2022/09/20 09:52:26;;;;;;;24.85;4.50;;;;;;;16.82;100.00;98403.53;5035613;28;20458;-59
2022/09/20 09:54:58;;;;;;;24.83;4.30;;;;;;;17.20;100.00;98392.47;5035670;28;20087;-58
2022/09/20 09:57:35;;;;;;;17.77;3.58;;;;;;;18.40;100.00;98377.75;5033943;28;20048;-58
2022/09/20 10:00:11;;;;;;;29.45;4.80;;;;;;;18.08;100.00;98380.72;5036693;28;20033;-59
2022/09/20 10:02:45;;;;;;;26.15;3.95;;;;;;;19.13;100.00;98386.03;5034476;28;20105;-58
2022/09/20 10:05:15;;;;;;;24.58;3.92;;;;;;;18.56;100.00;98385.47;5033919;28;20494;-59
2022/09/20 10:07:54;;;;;;;22.80;3.60;;;;;;;19.37;100.00;98389.63;5032354;28;20037;-59
2022/09/20 10:10:40;;;;;;;24.60;4.22;;;;;;;19.71;100.00;98379.25;5033540;28;20500;-61
2022/09/20 10:13:22;;;;;;;22.75;4.18;;;;;;;20.58;100.00;98379.88;5035036;28;20016;-61
2022/09/20 10:15:59;;;;;;;15.32;2.92;;;;;;;20.76;100.00;98376.84;5032701;28;20080;-59
2022/09/20 10:19:02;;;;;;;20.05;3.58;;;;;;;22.56;100.00;98380.19;5050693;28;20056;-61
2022/09/20 10:21:42;;;;;;;19.70;3.63;;;;;;;21.15;100.00;98377.34;5029137;28;20036;-58
2022/09/20 10:24:29;;;;;;;14.65;2.70;;;;;;;21.15;100.00;98372.03;5036518;28;20699;-59
2022/09/20 10:27:34;;;;;;;14.73;2.83;;;;;;;20.73;100.00;98372.63;5033480;28;20041;-57
2022/09/20 10:30:08;;;;;;;11.90;2.42;;;;;;;20.39;100.00;98371.66;5034900;28;20033;-62
2022/09/20 10:32:44;;;;;;;23.10;3.90;;;;;;;21.16;100.00;98379.03;5033374;28;20375;-61
2022/09/20 10:35:37;;;;;;;18.35;3.50;;;;;;;21.89;98.36;98371.47;5036180;28;20033;-59
2022/09/20 10:38:22;;;;;;;17.98;3.13;;;;;;;21.50;100.00;98371.09;5036597;28;20487;-61
2022/09/20 10:43:50;;;;;;;15.70;3.17;;;;;;;20.27;100.00;98369.91;5034856;28;20036;-56
2022/09/20 10:46:48;;;;;;;17.27;3.15;;;;;;;20.38;100.00;98368.16;5035695;28;20041;-58
2022/09/20 10:49:22;;;;;;;21.52;3.80;;;;;;;19.33;100.00;98364.31;5033899;28;20097;-58
2022/09/20 10:52:02;;;;;;;14.07;2.95;;;;;;;19.34;100.00;98365.19;5034896;28;20048;-60
2022/09/20 10:54:45;;;;;;;18.45;3.60;;;;;;;19.19;100.00;98364.47;5034325;28;20126;-60
2022/09/20 10:57:41;;;;;;;14.68;2.97;;;;;;;18.39;100.00;98367.28;5032237;28;20029;-57
2022/09/20 11:00:22;;;;;;;14.70;3.03;;;;;;;19.32;100.00;98373.22;5036468;28;20557;-57
2022/09/20 11:03:19;;;;;;;19.38;3.92;;;;;;;19.60;100.00;98372.09;5035071;28;20588;-61
2022/09/20 11:05:59;;;;;;;16.45;3.35;;;;;;;20.13;100.00;98369.16;5034937;28;20045;-57
2022/09/20 11:08:31;;;;;;;16.10;3.17;;;;;;;20.33;100.00;98369.47;5036836;28;20126;-60
2022/09/20 11:11:11;;;;;;;22.53;4.40;;;;;;;19.05;100.00;98366.28;5031960;28;20708;-61
2022/09/20 11:13:52;;;;;;;12.75;2.72;;;;;;;18.52;100.00;98373.41;5034863;28;20033;-61
2022/09/20 11:16:21;;;;;;;21.52;3.85;;;;;;;18.67;100.00;98375.03;5034115;28;20126;-60
2022/09/20 11:19:09;;;;;;;24.08;4.03;;;;;;;18.07;100.00;98372.91;5032924;28;20063;-58
2022/09/20 11:21:41;;;;;;;19.60;3.65;;;;;;;18.07;100.00;98386.13;5034585;28;20049;-60
2022/09/20 11:24:27;;;;;;;25.50;4.70;;;;;;;18.03;100.00;98385.47;5033674;28;20067;-58
2022/09/20 11:27:14;;;;;;;21.50;3.53;;;;;;;18.50;100.00;98380.59;5033288;28;20047;-60
2022/09/20 11:29:49;;;;;;;14.05;3.05;;;;;;;18.82;100.00;98388.16;5033037;28;20119;-58
2022/09/20 11:32:20;;;;;;;17.27;3.42;;;;;;;19.65;100.00;98382.34;5033314;28;20052;-60
2022/09/20 11:34:48;;;;;;;25.80;3.97;;;;;;;19.56;100.00;98372.44;5038096;28;20028;-59
2022/09/20 11:37:16;;;;;;;22.88;4.32;;;;;;;18.35;100.00;98373.72;5038808;28;20518;-59
2022/09/20 11:39:59;;;;;;;22.42;3.92;;;;;;;18.35;100.00;98376.38;5038040;28;20113;-60
2022/09/20 11:42:29;;;;;;;22.88;3.97;;;;;;;18.17;100.00;98373.97;5035026;28;20037;-58
2022/09/20 11:44:54;;;;;;;20.80;4.00;;;;;;;18.00;100.00;98371.63;5039041;28;20029;-61
2022/09/20 11:47:23;;;;;;;21.38;3.75;;;;;;;19.50;100.00;98370.22;5039503;28;20036;-59
2022/09/20 11:50:03;;;;;;;22.27;4.22;;;;;;;19.30;100.00;98369.84;5038504;28;20529;-57
2022/09/20 11:53:08;;;;;;;19.02;3.20;;;;;;;19.41;100.00;98367.28;5037645;28;20041;-59
2022/09/20 11:56:01;;;;;;;19.55;3.88;;;;;;;19.37;100.00;98367.59;5006572;28;20048;-59
2022/09/20 11:58:27;;;;;;;20.60;3.80;;;;;;;20.56;100.00;98365.06;5038469;28;20104;-57
2022/09/20 12:00:55;;;;;;;23.42;3.65;;;;;;;19.61;100.00;98367.63;5037583;28;20040;-56
2022/09/20 12:03:35;;;;;;;19.83;3.33;;;;;;;19.04;100.00;98363.72;5039354;28;20499;-58
2022/09/20 12:06:04;;;;;;;19.10;3.33;;;;;;;20.02;100.00;98363.81;5039765;28;20040;-57
2022/09/20 12:08:36;;;;;;;17.00;2.95;;;;;;;19.23;100.00;98353.56;5039118;28;20029;-58
2022/09/20 12:11:09;;;;;;;18.08;3.58;;;;;;;19.12;100.00;98355.28;5035130;28;20060;-56
2022/09/20 12:13:37;;;;;;;16.17;3.25;;;;;;;19.63;100.00;98355.16;5036746;28;20031;-58
2022/09/20 12:16:06;;;;;;;20.27;3.88;;;;;;;19.66;100.00;98354.91;5037747;28;20041;-57